sensor_id;sensor_type;location;lat;lon;timestamp;noise_LAeq;noise_LA_min;noise_LA_max;noise_LA01;noise_LA95
70077;Laerm;57448;51.490;5.436;2022-07-29T19:04:50;48.11;43.08;62.55;;
70077;Laerm;57448;51.490;5.436;2022-07-29T19:04:59;44.17;41.09;51.08;;
70077;Laerm;57448;51.490;5.436;2022-07-29T19:05:05;44.52;42.48;48.65;;
70077;Laerm;57448;51.490;5.436;2022-07-29T19:05:11;44.70;42.45;49.89;;
70077;Laerm;57448;51.490;5.436;2022-07-29T19:05:16;45.61;43.35;47.52;;
70077;Laerm;57448;51.490;5.436;2022-07-29T19:05:24;47.04;44.14;58.85;;
70077;Laerm;57448;51.490;5.436;2022-07-29T19:05:29;46.57;44.17;49.32;;
70077;Laerm;57448;51.490;5.436;2022-07-29T19:05:34;46.08;43.69;48.01;;
70077;Laerm;57448;51.490;5.436;2022-07-29T19:05:42;49.12;45.51;52.60;;
70077;Laerm;57448;51.490;5.436;2022-07-29T19:05:47;53.98;50.02;56.72;;
70077;Laerm;57448;51.490;5.436;2022-07-29T19:05:53;62.23;53.48;68.96;;
70077;Laerm;57448;51.490;5.436;2022-07-29T19:05:59;67.28;57.58;74.34;;
70077;Laerm;57448;51.490;5.436;2022-07-29T19:06:05;73.69;66.13;78.01;;
70077;Laerm;57448;51.490;5.436;2022-07-29T19:06:10;73.10;66.85;77.05;;
70077;Laerm;57448;51.490;5.436;2022-07-29T19:06:16;64.58;56.67;71.44;;
70077;Laerm;57448;51.490;5.436;2022-07-29T19:06:23;55.62;50.62;60.64;;
70077;Laerm;57448;51.490;5.436;2022-07-29T19:06:28;54.33;48.95;58.76;;
70077;Laerm;57448;51.490;5.436;2022-07-29T19:06:34;49.05;45.66;52.76;;
70077;Laerm;57448;51.490;5.436;2022-07-29T19:06:39;47.16;45.55;52.40;;
70077;Laerm;57448;51.490;5.436;2022-07-29T19:06:45;46.29;42.97;49.48;;
70077;Laerm;57448;51.490;5.436;2022-07-29T19:06:50;45.57;43.84;47.26;;
70077;Laerm;57448;51.490;5.436;2022-07-29T19:06:55;45.39;43.53;47.15;;
70077;Laerm;57448;51.490;5.436;2022-07-29T19:07:04;44.29;42.22;46.15;;
70077;Laerm;57448;51.490;5.436;2022-07-29T19:07:09;43.62;42.03;45.61;;
70077;Laerm;57448;51.490;5.436;2022-07-29T19:07:15;43.70;41.93;46.59;;
70077;Laerm;57448;51.490;5.436;2022-07-29T19:07:21;43.73;41.54;47.44;;
70077;Laerm;57448;51.490;5.436;2022-07-29T19:07:29;43.52;41.64;45.61;;
70077;Laerm;57448;51.490;5.436;2022-07-29T19:07:35;45.58;42.64;48.05;;
70077;Laerm;57448;51.490;5.436;2022-07-29T19:07:42;46.24;43.77;48.82;;
70077;Laerm;57448;51.490;5.436;2022-07-29T19:07:47;48.46;45.54;51.74;;
70077;Laerm;57448;51.490;5.436;2022-07-29T19:07:56;54.13;48.64;58.68;;
70077;Laerm;57448;51.490;5.436;2022-07-29T19:08:01;64.99;56.18;72.44;;
70077;Laerm;57448;51.490;5.436;2022-07-29T19:08:06;69.62;62.71;76.29;;
70077;Laerm;57448;51.490;5.436;2022-07-29T19:08:12;70.77;63.82;75.87;;
70077;Laerm;57448;51.490;5.436;2022-07-29T19:08:18;67.84;62.91;71.97;;
70077;Laerm;57448;51.490;5.436;2022-07-29T19:08:23;58.09;53.11;65.18;;
70077;Laerm;57448;51.490;5.436;2022-07-29T19:08:31;53.02;48.45;57.20;;
70077;Laerm;57448;51.490;5.436;2022-07-29T19:08:38;49.10;45.67;52.00;;
70077;Laerm;57448;51.490;5.436;2022-07-29T19:08:43;46.38;44.26;49.43;;
70077;Laerm;57448;51.490;5.436;2022-07-29T19:08:49;47.07;44.81;49.74;;
70077;Laerm;57448;51.490;5.436;2022-07-29T19:09:02;47.18;44.98;49.16;;
70077;Laerm;57448;51.490;5.436;2022-07-29T19:09:08;45.45;42.67;48.42;;
70077;Laerm;57448;51.490;5.436;2022-07-29T19:09:14;46.26;44.26;47.72;;
70077;Laerm;57448;51.490;5.436;2022-07-29T19:09:21;46.73;44.19;48.63;;
70077;Laerm;57448;51.490;5.436;2022-07-29T19:09:26;47.90;45.67;49.72;;
70077;Laerm;57448;51.490;5.436;2022-07-29T19:09:31;49.95;47.74;51.68;;
70077;Laerm;57448;51.490;5.436;2022-07-29T19:09:41;51.04;48.13;54.46;;
70077;Laerm;57448;51.490;5.436;2022-07-29T19:09:46;52.69;47.90;58.69;;
70077;Laerm;57448;51.490;5.436;2022-07-29T19:09:54;54.49;46.38;63.01;;
70077;Laerm;57448;51.490;5.436;2022-07-29T19:10:00;47.66;45.60;49.28;;
70077;Laerm;57448;51.490;5.436;2022-07-29T19:10:06;46.82;44.41;49.31;;
70077;Laerm;57448;51.490;5.436;2022-07-29T19:10:11;46.43;44.64;48.37;;
70077;Laerm;57448;51.490;5.436;2022-07-29T19:10:17;46.17;44.01;48.44;;
70077;Laerm;57448;51.490;5.436;2022-07-29T19:10:23;45.44;43.65;47.31;;
70077;Laerm;57448;51.490;5.436;2022-07-29T19:10:28;45.37;43.61;47.37;;
70077;Laerm;57448;51.490;5.436;2022-07-29T19:10:34;47.24;44.71;49.08;;
70077;Laerm;57448;51.490;5.436;2022-07-29T19:10:39;46.52;43.36;49.07;;
70077;Laerm;57448;51.490;5.436;2022-07-29T19:10:45;46.62;43.92;48.60;;
70077;Laerm;57448;51.490;5.436;2022-07-29T19:10:51;46.86;45.11;48.57;;
70077;Laerm;57448;51.490;5.436;2022-07-29T19:10:59;46.82;44.51;49.54;;
70077;Laerm;57448;51.490;5.436;2022-07-29T19:11:04;46.87;44.36;48.99;;
70077;Laerm;57448;51.490;5.436;2022-07-29T19:11:10;46.65;44.31;49.13;;
70077;Laerm;57448;51.490;5.436;2022-07-29T19:11:16;47.24;44.71;49.43;;
70077;Laerm;57448;51.490;5.436;2022-07-29T19:11:30;48.58;45.59;51.78;;
70077;Laerm;57448;51.490;5.436;2022-07-29T19:11:36;52.80;47.66;57.61;;
70077;Laerm;57448;51.490;5.436;2022-07-29T19:11:42;52.68;47.50;57.95;;
70077;Laerm;57448;51.490;5.436;2022-07-29T19:11:50;46.11;42.24;49.57;;
70077;Laerm;57448;51.490;5.436;2022-07-29T19:11:55;46.23;42.24;52.18;;
70077;Laerm;57448;51.490;5.436;2022-07-29T19:12:01;45.03;42.42;47.76;;
70077;Laerm;57448;51.490;5.436;2022-07-29T19:12:06;45.15;42.86;48.47;;
70077;Laerm;57448;51.490;5.436;2022-07-29T19:12:12;45.18;43.31;47.22;;
70077;Laerm;57448;51.490;5.436;2022-07-29T19:12:17;44.95;42.52;47.33;;
70077;Laerm;57448;51.490;5.436;2022-07-29T19:12:22;43.78;42.02;45.73;;
70077;Laerm;57448;51.490;5.436;2022-07-29T19:12:28;44.76;42.73;46.61;;
70077;Laerm;57448;51.490;5.436;2022-07-29T19:12:33;45.52;43.59;47.29;;
70077;Laerm;57448;51.490;5.436;2022-07-29T19:12:39;46.66;44.50;48.63;;
70077;Laerm;57448;51.490;5.436;2022-07-29T19:12:46;47.22;44.14;51.68;;
70077;Laerm;57448;51.490;5.436;2022-07-29T19:12:53;50.06;46.55;53.38;;
70077;Laerm;57448;51.490;5.436;2022-07-29T19:13:00;55.89;47.95;63.31;;
70077;Laerm;57448;51.490;5.436;2022-07-29T19:13:06;49.14;44.78;52.70;;
70077;Laerm;57448;51.490;5.436;2022-07-29T19:13:12;44.56;42.07;47.43;;
70077;Laerm;57448;51.490;5.436;2022-07-29T19:13:17;43.92;41.99;46.08;;
70077;Laerm;57448;51.490;5.436;2022-07-29T19:13:22;44.35;41.62;48.00;;
70077;Laerm;57448;51.490;5.436;2022-07-29T19:13:28;45.59;41.91;49.78;;
70077;Laerm;57448;51.490;5.436;2022-07-29T19:13:33;44.73;43.02;46.84;;
70077;Laerm;57448;51.490;5.436;2022-07-29T19:13:41;45.03;42.60;48.21;;
70077;Laerm;57448;51.490;5.436;2022-07-29T19:13:46;45.56;43.45;47.08;;
70077;Laerm;57448;51.490;5.436;2022-07-29T19:13:51;45.81;43.41;48.43;;
70077;Laerm;57448;51.490;5.436;2022-07-29T19:13:57;45.44;43.44;47.71;;
70077;Laerm;57448;51.490;5.436;2022-07-29T19:14:03;45.16;42.84;47.42;;
70077;Laerm;57448;51.490;5.436;2022-07-29T19:14:08;45.08;43.38;46.80;;
70077;Laerm;57448;51.490;5.436;2022-07-29T19:14:18;46.42;43.82;49.66;;
70077;Laerm;57448;51.490;5.436;2022-07-29T19:14:23;45.64;43.26;50.21;;
70077;Laerm;57448;51.490;5.436;2022-07-29T19:14:28;44.87;42.98;46.64;;
70077;Laerm;57448;51.490;5.436;2022-07-29T19:14:36;45.37;42.97;47.17;;
70077;Laerm;57448;51.490;5.436;2022-07-29T19:14:42;45.62;42.32;50.37;;
70077;Laerm;57448;51.490;5.436;2022-07-29T19:14:47;46.72;44.15;49.04;;
70077;Laerm;57448;51.490;5.436;2022-07-29T19:14:53;49.13;44.36;54.88;;
70077;Laerm;57448;51.490;5.436;2022-07-29T19:15:01;48.24;46.22;50.29;;
70077;Laerm;57448;51.490;5.436;2022-07-29T19:15:07;47.79;44.29;51.02;;
70077;Laerm;57448;51.490;5.436;2022-07-29T19:15:14;45.88;43.16;48.36;;
70077;Laerm;57448;51.490;5.436;2022-07-29T19:15:19;44.66;42.66;47.14;;
70077;Laerm;57448;51.490;5.436;2022-07-29T19:15:25;45.28;43.58;47.08;;
70077;Laerm;57448;51.490;5.436;2022-07-29T19:15:30;45.51;43.28;47.86;;
70077;Laerm;57448;51.490;5.436;2022-07-29T19:15:37;45.47;43.60;47.27;;
70077;Laerm;57448;51.490;5.436;2022-07-29T19:15:42;46.71;44.98;48.51;;
70077;Laerm;57448;51.490;5.436;2022-07-29T19:15:50;46.45;43.86;50.03;;
70077;Laerm;57448;51.490;5.436;2022-07-29T19:15:55;45.49;43.83;47.34;;
70077;Laerm;57448;51.490;5.436;2022-07-29T19:16:04;45.21;42.45;47.10;;
70077;Laerm;57448;51.490;5.436;2022-07-29T19:16:09;44.58;42.58;46.30;;
70077;Laerm;57448;51.490;5.436;2022-07-29T19:16:19;44.59;42.17;47.04;;
70077;Laerm;57448;51.490;5.436;2022-07-29T19:16:24;44.98;42.63;47.40;;
70077;Laerm;57448;51.490;5.436;2022-07-29T19:16:30;45.26;42.78;47.84;;
70077;Laerm;57448;51.490;5.436;2022-07-29T19:16:35;45.74;43.12;47.86;;
70077;Laerm;57448;51.490;5.436;2022-07-29T19:16:43;45.38;43.42;48.53;;
70077;Laerm;57448;51.490;5.436;2022-07-29T19:16:49;45.83;43.88;51.06;;
70077;Laerm;57448;51.490;5.436;2022-07-29T19:16:55;44.60;42.17;47.32;;
70077;Laerm;57448;51.490;5.436;2022-07-29T19:17:00;45.32;43.20;47.89;;
70077;Laerm;57448;51.490;5.436;2022-07-29T19:17:06;45.61;42.60;57.82;;
70077;Laerm;57448;51.490;5.436;2022-07-29T19:17:11;45.33;43.26;47.81;;
70077;Laerm;57448;51.490;5.436;2022-07-29T19:17:16;45.34;43.20;47.45;;
70077;Laerm;57448;51.490;5.436;2022-07-29T19:17:25;44.77;41.95;55.06;;
70077;Laerm;57448;51.490;5.436;2022-07-29T19:17:30;43.54;41.61;45.57;;
70077;Laerm;57448;51.490;5.436;2022-07-29T19:17:35;43.69;41.59;46.77;;
70077;Laerm;57448;51.490;5.436;2022-07-29T19:17:43;45.42;41.45;58.51;;
70077;Laerm;57448;51.490;5.436;2022-07-29T19:17:50;45.00;42.73;47.75;;
70077;Laerm;57448;51.490;5.436;2022-07-29T19:17:55;44.51;42.13;46.41;;
70077;Laerm;57448;51.490;5.436;2022-07-29T19:18:02;43.81;41.92;46.05;;
70077;Laerm;57448;51.490;5.436;2022-07-29T19:18:08;43.92;41.87;46.32;;
70077;Laerm;57448;51.490;5.436;2022-07-29T19:18:13;44.28;42.16;47.32;;
70077;Laerm;57448;51.490;5.436;2022-07-29T19:18:19;43.73;41.81;46.06;;
70077;Laerm;57448;51.490;5.436;2022-07-29T19:18:24;44.39;42.60;47.20;;
70077;Laerm;57448;51.490;5.436;2022-07-29T19:18:30;44.59;42.51;46.81;;
70077;Laerm;57448;51.490;5.436;2022-07-29T19:18:35;44.81;42.47;49.31;;
70077;Laerm;57448;51.490;5.436;2022-07-29T19:18:42;44.56;42.33;47.98;;
70077;Laerm;57448;51.490;5.436;2022-07-29T19:18:48;44.33;41.22;47.74;;
70077;Laerm;57448;51.490;5.436;2022-07-29T19:18:54;45.02;43.16;47.19;;
70077;Laerm;57448;51.490;5.436;2022-07-29T19:18:59;43.26;41.03;45.97;;
70077;Laerm;57448;51.490;5.436;2022-07-29T19:19:05;42.94;40.88;44.48;;
70077;Laerm;57448;51.490;5.436;2022-07-29T19:19:15;43.18;41.36;44.89;;
70077;Laerm;57448;51.490;5.436;2022-07-29T19:19:23;43.89;41.74;46.30;;
70077;Laerm;57448;51.490;5.436;2022-07-29T19:19:29;44.32;42.74;46.02;;
70077;Laerm;57448;51.490;5.436;2022-07-29T19:19:34;43.36;41.32;45.73;;
70077;Laerm;57448;51.490;5.436;2022-07-29T19:19:40;42.57;40.78;44.98;;
70077;Laerm;57448;51.490;5.436;2022-07-29T19:19:51;42.12;39.85;44.11;;
70077;Laerm;57448;51.490;5.436;2022-07-29T19:19:57;42.21;39.97;44.62;;
70077;Laerm;57448;51.490;5.436;2022-07-29T19:20:05;42.51;41.04;44.15;;
70077;Laerm;57448;51.490;5.436;2022-07-29T19:20:11;44.32;41.32;47.15;;
70077;Laerm;57448;51.490;5.436;2022-07-29T19:20:16;43.47;41.31;46.16;;
70077;Laerm;57448;51.490;5.436;2022-07-29T19:20:22;43.18;41.18;45.13;;
70077;Laerm;57448;51.490;5.436;2022-07-29T19:20:27;44.47;41.65;46.74;;
70077;Laerm;57448;51.490;5.436;2022-07-29T19:20:34;44.58;43.04;47.12;;
70077;Laerm;57448;51.490;5.436;2022-07-29T19:20:42;44.66;42.36;46.92;;
70077;Laerm;57448;51.490;5.436;2022-07-29T19:20:47;44.89;42.56;50.48;;
70077;Laerm;57448;51.490;5.436;2022-07-29T19:20:53;44.44;42.71;45.89;;
70077;Laerm;57448;51.490;5.436;2022-07-29T19:20:58;44.45;41.74;46.74;;
70077;Laerm;57448;51.490;5.436;2022-07-29T19:21:03;45.05;43.32;46.65;;
70077;Laerm;57448;51.490;5.436;2022-07-29T19:21:09;45.60;43.43;47.53;;
70077;Laerm;57448;51.490;5.436;2022-07-29T19:21:14;45.02;42.30;47.47;;
70077;Laerm;57448;51.490;5.436;2022-07-29T19:21:20;44.41;42.36;47.64;;
70077;Laerm;57448;51.490;5.436;2022-07-29T19:21:25;44.39;42.55;47.22;;
70077;Laerm;57448;51.490;5.436;2022-07-29T19:21:33;43.46;40.91;46.21;;
70077;Laerm;57448;51.490;5.436;2022-07-29T19:21:39;43.70;41.56;46.98;;
70077;Laerm;57448;51.490;5.436;2022-07-29T19:21:46;43.55;41.28;45.72;;
70077;Laerm;57448;51.490;5.436;2022-07-29T19:21:52;44.71;42.34;46.85;;
70077;Laerm;57448;51.490;5.436;2022-07-29T19:21:57;45.43;43.34;48.64;;
70077;Laerm;57448;51.490;5.436;2022-07-29T19:22:03;45.39;42.54;48.31;;
70077;Laerm;57448;51.490;5.436;2022-07-29T19:22:08;45.72;43.31;48.53;;
70077;Laerm;57448;51.490;5.436;2022-07-29T19:22:14;45.76;43.88;47.88;;
70077;Laerm;57448;51.490;5.436;2022-07-29T19:22:19;45.05;42.37;47.90;;
70077;Laerm;57448;51.490;5.436;2022-07-29T19:22:25;44.15;40.64;48.76;;
70077;Laerm;57448;51.490;5.436;2022-07-29T19:22:31;44.06;40.40;47.03;;
70077;Laerm;57448;51.490;5.436;2022-07-29T19:22:38;42.98;39.80;45.44;;
70077;Laerm;57448;51.490;5.436;2022-07-29T19:22:43;43.27;40.96;45.19;;
70077;Laerm;57448;51.490;5.436;2022-07-29T19:22:49;43.26;41.36;44.94;;
70077;Laerm;57448;51.490;5.436;2022-07-29T19:22:54;43.79;41.83;45.71;;
70077;Laerm;57448;51.490;5.436;2022-07-29T19:23:00;44.76;42.77;47.38;;
70077;Laerm;57448;51.490;5.436;2022-07-29T19:23:05;44.31;41.76;48.43;;
70077;Laerm;57448;51.490;5.436;2022-07-29T19:23:10;44.13;42.20;46.41;;
70077;Laerm;57448;51.490;5.436;2022-07-29T19:23:16;43.73;41.92;45.45;;
70077;Laerm;57448;51.490;5.436;2022-07-29T19:23:23;44.06;41.88;46.88;;
70077;Laerm;57448;51.490;5.436;2022-07-29T19:23:31;43.20;41.09;45.89;;
70077;Laerm;57448;51.490;5.436;2022-07-29T19:23:36;43.75;41.83;46.28;;
70077;Laerm;57448;51.490;5.436;2022-07-29T19:23:42;44.21;41.61;46.04;;
70077;Laerm;57448;51.490;5.436;2022-07-29T19:23:47;43.26;41.02;45.35;;
70077;Laerm;57448;51.490;5.436;2022-07-29T19:23:52;43.15;40.86;47.43;;
70077;Laerm;57448;51.490;5.436;2022-07-29T19:23:58;42.25;39.92;44.76;;
70077;Laerm;57448;51.490;5.436;2022-07-29T19:24:05;44.38;39.78;47.61;;
70077;Laerm;57448;51.490;5.436;2022-07-29T19:24:11;44.00;41.05;46.61;;
70077;Laerm;57448;51.490;5.436;2022-07-29T19:24:16;43.75;41.41;47.58;;
70077;Laerm;57448;51.490;5.436;2022-07-29T19:24:21;42.96;40.80;46.30;;
70077;Laerm;57448;51.490;5.436;2022-07-29T19:24:27;44.05;42.04;47.43;;
70077;Laerm;57448;51.490;5.436;2022-07-29T19:24:32;44.29;41.61;46.91;;
70077;Laerm;57448;51.490;5.436;2022-07-29T19:24:38;43.57;40.87;46.32;;
70077;Laerm;57448;51.490;5.436;2022-07-29T19:24:44;43.83;40.75;46.54;;
70077;Laerm;57448;51.490;5.436;2022-07-29T19:24:49;42.49;40.51;47.46;;
70077;Laerm;57448;51.490;5.436;2022-07-29T19:24:55;43.30;41.33;45.87;;
70077;Laerm;57448;51.490;5.436;2022-07-29T19:25:00;41.92;40.04;43.82;;
70077;Laerm;57448;51.490;5.436;2022-07-29T19:25:06;43.32;41.37;44.99;;
70077;Laerm;57448;51.490;5.436;2022-07-29T19:25:11;43.67;41.43;45.61;;
70077;Laerm;57448;51.490;5.436;2022-07-29T19:25:17;42.96;41.21;45.12;;
70077;Laerm;57448;51.490;5.436;2022-07-29T19:25:24;43.07;41.15;46.36;;
70077;Laerm;57448;51.490;5.436;2022-07-29T19:25:31;43.02;40.83;46.32;;
70077;Laerm;57448;51.490;5.436;2022-07-29T19:25:36;44.08;41.49;47.78;;
70077;Laerm;57448;51.490;5.436;2022-07-29T19:25:41;43.60;41.06;46.16;;
70077;Laerm;57448;51.490;5.436;2022-07-29T19:25:48;43.37;41.17;45.81;;
70077;Laerm;57448;51.490;5.436;2022-07-29T19:25:54;43.03;41.14;47.10;;
70077;Laerm;57448;51.490;5.436;2022-07-29T19:25:59;42.19;40.02;44.33;;
70077;Laerm;57448;51.490;5.436;2022-07-29T19:26:04;43.53;41.59;45.36;;
70077;Laerm;57448;51.490;5.436;2022-07-29T19:26:10;44.90;42.66;47.48;;
70077;Laerm;57448;51.490;5.436;2022-07-29T19:26:16;45.74;43.78;47.93;;
70077;Laerm;57448;51.490;5.436;2022-07-29T19:26:21;44.81;41.83;47.57;;
70077;Laerm;57448;51.490;5.436;2022-07-29T19:26:27;44.65;41.99;47.74;;
70077;Laerm;57448;51.490;5.436;2022-07-29T19:26:32;44.11;42.18;46.64;;
70077;Laerm;57448;51.490;5.436;2022-07-29T19:26:40;44.74;42.53;47.71;;
70077;Laerm;57448;51.490;5.436;2022-07-29T19:26:50;44.92;41.87;48.83;;
70077;Laerm;57448;51.490;5.436;2022-07-29T19:26:55;43.74;41.59;45.45;;
70077;Laerm;57448;51.490;5.436;2022-07-29T19:27:02;44.12;41.87;46.45;;
70077;Laerm;57448;51.490;5.436;2022-07-29T19:27:07;43.98;42.05;46.02;;
70077;Laerm;57448;51.490;5.436;2022-07-29T19:27:13;44.42;41.74;47.41;;
70077;Laerm;57448;51.490;5.436;2022-07-29T19:27:18;44.70;42.42;47.69;;
70077;Laerm;57448;51.490;5.436;2022-07-29T19:27:24;44.54;41.72;46.95;;
70077;Laerm;57448;51.490;5.436;2022-07-29T19:27:29;44.10;42.14;46.22;;
70077;Laerm;57448;51.490;5.436;2022-07-29T19:27:35;45.37;42.61;48.97;;
70077;Laerm;57448;51.490;5.436;2022-07-29T19:27:40;44.16;41.58;46.11;;
70077;Laerm;57448;51.490;5.436;2022-07-29T19:27:46;44.62;41.95;50.04;;
70077;Laerm;57448;51.490;5.436;2022-07-29T19:27:51;43.87;41.85;46.35;;
70077;Laerm;57448;51.490;5.436;2022-07-29T19:27:58;45.48;42.82;49.30;;
70077;Laerm;57448;51.490;5.436;2022-07-29T19:28:09;47.43;43.75;54.69;;
70077;Laerm;57448;51.490;5.436;2022-07-29T19:28:17;45.51;41.72;49.01;;
70077;Laerm;57448;51.490;5.436;2022-07-29T19:28:23;44.94;41.55;50.76;;
70077;Laerm;57448;51.490;5.436;2022-07-29T19:28:28;44.58;42.06;47.66;;
70077;Laerm;57448;51.490;5.436;2022-07-29T19:28:33;42.30;39.94;44.94;;
70077;Laerm;57448;51.490;5.436;2022-07-29T19:28:39;43.26;40.85;46.13;;
70077;Laerm;57448;51.490;5.436;2022-07-29T19:28:44;42.87;40.92;45.08;;
70077;Laerm;57448;51.490;5.436;2022-07-29T19:28:52;44.00;40.88;52.24;;
70077;Laerm;57448;51.490;5.436;2022-07-29T19:28:58;42.33;40.35;44.72;;
70077;Laerm;57448;51.490;5.436;2022-07-29T19:29:03;44.55;41.24;48.52;;
70077;Laerm;57448;51.490;5.436;2022-07-29T19:29:09;43.60;40.84;47.62;;
70077;Laerm;57448;51.490;5.436;2022-07-29T19:29:14;41.36;39.80;43.27;;
70077;Laerm;57448;51.490;5.436;2022-07-29T19:29:23;42.43;39.93;47.69;;
70077;Laerm;57448;51.490;5.436;2022-07-29T19:29:30;43.31;40.42;46.21;;
70077;Laerm;57448;51.490;5.436;2022-07-29T19:29:36;43.32;41.34;45.25;;
70077;Laerm;57448;51.490;5.436;2022-07-29T19:29:41;42.89;40.59;44.51;;
70077;Laerm;57448;51.490;5.436;2022-07-29T19:29:47;42.97;41.62;44.25;;
70077;Laerm;57448;51.490;5.436;2022-07-29T19:29:52;43.22;41.67;45.19;;
70077;Laerm;57448;51.490;5.436;2022-07-29T19:29:57;43.38;41.80;45.47;;
70077;Laerm;57448;51.490;5.436;2022-07-29T19:30:03;44.45;41.89;47.61;;
70077;Laerm;57448;51.490;5.436;2022-07-29T19:30:10;44.17;42.07;46.89;;
70077;Laerm;57448;51.490;5.436;2022-07-29T19:30:16;43.86;41.39;46.32;;
70077;Laerm;57448;51.490;5.436;2022-07-29T19:30:21;43.27;41.55;45.03;;
70077;Laerm;57448;51.490;5.436;2022-07-29T19:30:29;44.24;41.66;46.69;;
70077;Laerm;57448;51.490;5.436;2022-07-29T19:30:35;43.88;41.34;46.73;;
70077;Laerm;57448;51.490;5.436;2022-07-29T19:30:41;42.94;40.65;45.85;;
70077;Laerm;57448;51.490;5.436;2022-07-29T19:30:46;44.39;41.07;46.88;;
70077;Laerm;57448;51.490;5.436;2022-07-29T19:30:52;43.17;40.49;45.69;;
70077;Laerm;57448;51.490;5.436;2022-07-29T19:30:57;42.99;40.67;46.13;;
70077;Laerm;57448;51.490;5.436;2022-07-29T19:31:05;42.92;40.80;45.60;;
70077;Laerm;57448;51.490;5.436;2022-07-29T19:31:11;42.35;40.37;46.27;;
70077;Laerm;57448;51.490;5.436;2022-07-29T19:31:17;43.84;40.63;46.96;;
70077;Laerm;57448;51.490;5.436;2022-07-29T19:31:24;42.65;40.53;45.11;;
70077;Laerm;57448;51.490;5.436;2022-07-29T19:31:30;44.05;41.39;46.42;;
70077;Laerm;57448;51.490;5.436;2022-07-29T19:31:35;44.29;40.37;46.06;;
70077;Laerm;57448;51.490;5.436;2022-07-29T19:31:42;43.45;41.40;45.45;;
70077;Laerm;57448;51.490;5.436;2022-07-29T19:31:48;43.99;41.67;48.21;;
70077;Laerm;57448;51.490;5.436;2022-07-29T19:31:53;44.20;41.36;48.42;;
70077;Laerm;57448;51.490;5.436;2022-07-29T19:31:58;43.08;40.78;47.39;;
70077;Laerm;57448;51.490;5.436;2022-07-29T19:32:04;42.43;40.66;45.68;;
70077;Laerm;57448;51.490;5.436;2022-07-29T19:32:10;43.53;40.77;48.10;;
70077;Laerm;57448;51.490;5.436;2022-07-29T19:32:17;42.70;39.00;49.05;;
70077;Laerm;57448;51.490;5.436;2022-07-29T19:32:22;41.95;39.91;45.25;;
70077;Laerm;57448;51.490;5.436;2022-07-29T19:32:29;43.34;40.57;52.36;;
70077;Laerm;57448;51.490;5.436;2022-07-29T19:32:34;42.43;40.68;44.08;;
70077;Laerm;57448;51.490;5.436;2022-07-29T19:32:40;42.24;39.87;44.29;;
70077;Laerm;57448;51.490;5.436;2022-07-29T19:32:45;42.11;40.39;45.58;;
70077;Laerm;57448;51.490;5.436;2022-07-29T19:32:51;44.23;40.38;50.34;;
70077;Laerm;57448;51.490;5.436;2022-07-29T19:32:58;42.00;39.79;44.30;;
70077;Laerm;57448;51.490;5.436;2022-07-29T19:33:03;42.80;39.92;45.10;;
70077;Laerm;57448;51.490;5.436;2022-07-29T19:33:08;44.32;41.82;47.52;;
70077;Laerm;57448;51.490;5.436;2022-07-29T19:33:18;50.30;44.04;58.66;;
70077;Laerm;57448;51.490;5.436;2022-07-29T19:33:24;61.33;52.05;66.12;;
70077;Laerm;57448;51.490;5.436;2022-07-29T19:33:30;64.52;57.64;68.90;;
70077;Laerm;57448;51.490;5.436;2022-07-29T19:33:36;64.60;60.08;68.61;;
70077;Laerm;57448;51.490;5.436;2022-07-29T19:33:41;59.70;56.04;64.43;;
70077;Laerm;57448;51.490;5.436;2022-07-29T19:33:47;53.05;46.53;57.84;;
70077;Laerm;57448;51.490;5.436;2022-07-29T19:33:52;47.88;44.08;52.64;;
70077;Laerm;57448;51.490;5.436;2022-07-29T19:33:57;47.61;45.02;51.43;;
70077;Laerm;57448;51.490;5.436;2022-07-29T19:34:03;44.89;42.84;48.54;;
70077;Laerm;57448;51.490;5.436;2022-07-29T19:34:08;44.22;42.19;46.48;;
70077;Laerm;57448;51.490;5.436;2022-07-29T19:34:15;44.20;42.13;46.99;;
70077;Laerm;57448;51.490;5.436;2022-07-29T19:34:21;43.63;41.62;45.53;;
70077;Laerm;57448;51.490;5.436;2022-07-29T19:34:26;43.73;40.45;46.46;;
70077;Laerm;57448;51.490;5.436;2022-07-29T19:34:33;43.50;41.08;46.65;;
70077;Laerm;57448;51.490;5.436;2022-07-29T19:34:38;43.41;40.34;45.50;;
70077;Laerm;57448;51.490;5.436;2022-07-29T19:34:45;43.82;41.21;47.27;;
70077;Laerm;57448;51.490;5.436;2022-07-29T19:35:12;42.77;39.96;46.92;;
70077;Laerm;57448;51.490;5.436;2022-07-29T19:35:31;43.02;39.74;48.97;;
70077;Laerm;57448;51.490;5.436;2022-07-29T19:35:37;42.40;40.07;44.56;;
70077;Laerm;57448;51.490;5.436;2022-07-29T19:35:44;42.02;39.83;43.44;;
70077;Laerm;57448;51.490;5.436;2022-07-29T19:35:49;41.98;39.98;44.46;;
70077;Laerm;57448;51.490;5.436;2022-07-29T19:35:55;42.30;39.43;46.18;;
70077;Laerm;57448;51.490;5.436;2022-07-29T19:36:00;41.86;40.18;43.34;;
70077;Laerm;57448;51.490;5.436;2022-07-29T19:36:06;41.92;39.19;43.42;;
70077;Laerm;57448;51.490;5.436;2022-07-29T19:36:11;41.27;39.11;43.13;;
70077;Laerm;57448;51.490;5.436;2022-07-29T19:36:17;43.91;41.08;48.20;;
70077;Laerm;57448;51.490;5.436;2022-07-29T19:36:23;43.49;38.89;52.36;;
70077;Laerm;57448;51.490;5.436;2022-07-29T19:36:30;42.12;39.36;46.83;;
70077;Laerm;57448;51.490;5.436;2022-07-29T19:36:36;42.10;40.01;48.15;;
70077;Laerm;57448;51.490;5.436;2022-07-29T19:36:42;42.26;39.81;48.95;;
70077;Laerm;57448;51.490;5.436;2022-07-29T19:36:50;44.26;40.93;49.13;;
70077;Laerm;57448;51.490;5.436;2022-07-29T19:36:55;48.10;43.54;53.85;;
70077;Laerm;57448;51.490;5.436;2022-07-29T19:37:03;50.50;46.34;54.20;;
70077;Laerm;57448;51.490;5.436;2022-07-29T19:37:16;66.86;52.27;73.39;;
70077;Laerm;57448;51.490;5.436;2022-07-29T19:37:24;70.90;64.96;75.34;;
70077;Laerm;57448;51.490;5.436;2022-07-29T19:37:30;65.99;62.25;69.21;;
70077;Laerm;57448;51.490;5.436;2022-07-29T19:37:35;61.88;54.37;65.95;;
70077;Laerm;57448;51.490;5.436;2022-07-29T19:37:41;53.46;49.29;56.50;;
70077;Laerm;57448;51.490;5.436;2022-07-29T19:37:47;52.52;48.68;55.78;;
70077;Laerm;57448;51.490;5.436;2022-07-29T19:37:53;49.22;44.60;53.56;;
70077;Laerm;57448;51.490;5.436;2022-07-29T19:37:59;48.18;44.63;51.40;;
70077;Laerm;57448;51.490;5.436;2022-07-29T19:38:05;46.94;43.91;50.94;;
70077;Laerm;57448;51.490;5.436;2022-07-29T19:38:10;47.48;43.57;51.38;;
70077;Laerm;57448;51.490;5.436;2022-07-29T19:38:17;46.64;43.13;49.78;;
70077;Laerm;57448;51.490;5.436;2022-07-29T19:38:26;48.13;43.44;54.34;;
70077;Laerm;57448;51.490;5.436;2022-07-29T19:38:32;48.58;44.35;53.93;;
70077;Laerm;57448;51.490;5.436;2022-07-29T19:38:38;46.15;42.70;51.38;;
70077;Laerm;57448;51.490;5.436;2022-07-29T19:38:43;45.03;43.04;46.64;;
70077;Laerm;57448;51.490;5.436;2022-07-29T19:38:49;44.09;42.00;47.16;;
70077;Laerm;57448;51.490;5.436;2022-07-29T19:38:54;44.65;42.25;46.80;;
70077;Laerm;57448;51.490;5.436;2022-07-29T19:38:59;44.46;41.93;46.65;;
70077;Laerm;57448;51.490;5.436;2022-07-29T19:39:05;44.08;42.12;46.42;;
70077;Laerm;57448;51.490;5.436;2022-07-29T19:39:10;47.01;43.66;50.47;;
70077;Laerm;57448;51.490;5.436;2022-07-29T19:39:16;48.79;45.30;52.68;;
70077;Laerm;57448;51.490;5.436;2022-07-29T19:39:21;54.92;47.13;61.14;;
70077;Laerm;57448;51.490;5.436;2022-07-29T19:39:26;62.30;54.52;66.53;;
70077;Laerm;57448;51.490;5.436;2022-07-29T19:39:32;67.38;61.23;71.74;;